WetterOnline ( https://www.wetteronline.de )

Wetter aktuell Flensburg

Aktuelles Wetter: Schleswig (48m)

6-stündlich | Neueste Meldungen
Ortszeit Temperatur Wetter
Fr, 26.02. 1:00 4.0° C bedeckt
Do, 25.02. 19:00 6.8° C bewölkt
Do, 25.02. 13:00 13.6° C bewölkt
Do, 25.02. 7:00 8.3° C wolkig
Do, 25.02. 1:00 11.4° C leicht bewölkt
Mi, 24.02. 19:00 13.3° C bedeckt
Mi, 24.02. 13:00 14.6° C bedeckt
Mi, 24.02. 7:00 9.7° C wolkig
Ortszeit Temperatur Wetter
Fr, 26.02. 2:30 3.5° C bedeckt
Fr, 26.02. 2:20 3.5° C bedeckt
Fr, 26.02. 2:10 3.6° C bedeckt
Fr, 26.02. 2:00 3.7° C bedeckt
Fr, 26.02. 1:50 3.7° C bedeckt
Fr, 26.02. 1:40 3.7° C bedeckt
Fr, 26.02. 1:30 4.0° C bedeckt
Fr, 26.02. 1:00 4.0° C bedeckt
Ortszeit Relative Feuchte Sichtweite
Fr, 26.02. 1:00 94% 16 km
Do, 25.02. 19:00 91% 18 km
Do, 25.02. 13:00 68% 23 km
Do, 25.02. 7:00 87% 19 km
Do, 25.02. 1:00 68% 35 km
Mi, 24.02. 19:00 75% 35 km
Mi, 24.02. 13:00 65% 35 km
Mi, 24.02. 7:00 84% 30 km
Ortszeit Relative Feuchte Sichtweite
Fr, 26.02. 2:30 95% 14 km
Fr, 26.02. 2:20 95% -
Fr, 26.02. 2:10 96% -
Fr, 26.02. 2:00 95% 15 km
Fr, 26.02. 1:50 95% -
Fr, 26.02. 1:40 94% -
Fr, 26.02. 1:30 94% 16 km
Fr, 26.02. 1:00 94% 16 km
Ortszeit Niederschlagsmenge Niederschlagsart
Fr, 26.02. 1:00 0.1 l/m2 in 6 Std. Regen
Do, 25.02. 19:00 0.1 l/m2 in 12 Std. Sprühregen
Do, 25.02. 13:00 0.0 l/m2 in 6 Std. -
Do, 25.02. 7:00 0.1 l/m2 in 12 Std. -
Do, 25.02. 1:00 0.1 l/m2 in 6 Std. Regen
Mi, 24.02. 19:00 0.0 l/m2 in 12 Std. -
Mi, 24.02. 13:00 0.0 l/m2 in 6 Std. -
Mi, 24.02. 7:00 0.0 l/m2 in 12 Std. -
Ortszeit Niederschlagsmenge Niederschlagsart
Fr, 26.02. 2:30 0.0 l/m2 in 1 Std. -
Fr, 26.02. 2:20 keine Meldung -
Fr, 26.02. 2:10 keine Meldung -
Fr, 26.02. 2:00 0.0 l/m2 in 1 Std. -
Fr, 26.02. 1:50 keine Meldung -
Fr, 26.02. 1:40 keine Meldung -
Fr, 26.02. 1:30 0.0 l/m2 in 1 Std. -
Fr, 26.02. 1:00 0.0 l/m2 in 1 Std. Regen
Ortszeit Stärke Spitze Richtung
km/h Bft. km/h Grad Sektor
Fr, 26.02. 1:00 11 2 24 260° W
Do, 25.02. 19:00 11 2 40 280° W
Do, 25.02. 13:00 22 4 43 260° W
Do, 25.02. 7:00 15 3 22 200° S
Do, 25.02. 1:00 13 3 26 200° S
Mi, 24.02. 19:00 14 3 43 220° SW
Mi, 24.02. 13:00 22 4 47 220° SW
Mi, 24.02. 7:00 17 3 31 210° SW
Ortszeit Stärke Spitze Richtung
km/h Bft. km/h Grad Sektor
Fr, 26.02. 2:30 11 2 22 260° W
Fr, 26.02. 2:20 11 2 - 260° W
Fr, 26.02. 2:10 11 2 - 260° W
Fr, 26.02. 2:00 13 3 20 260° W
Fr, 26.02. 1:50 13 3 - 260° W
Fr, 26.02. 1:40 11 2 - 260° W
Fr, 26.02. 1:30 13 3 20 250° W
Fr, 26.02. 1:00 11 2 20 260° W
Ortszeit Untergrenze Bedeckung Gattung
total tief tief mittel hoch
Fr, 26.02. 1:00 4500 m 8/8 8/8 - - -
Do, 25.02. 19:00 1350 m 7/8 7/8 - - -
Do, 25.02. 13:00 660 m 7/8 7/8 - - -
Do, 25.02. 7:00 9000 m 8/8 0/8 - - -
Do, 25.02. 1:00 10500 m 4/8 0/8 - - -
Mi, 24.02. 19:00 1500 m 8/8 8/8 - - -
Mi, 24.02. 13:00 1800 m 8/8 8/8 - - -
Mi, 24.02. 7:00 8100 m 8/8 0/8 - - -
Ortszeit Bedeckungsgrad in Achtel und Wolkenuntergrenze
Fr, 26.02. 2:30 8(6900m) 8(7800m)
Fr, 26.02. 2:20 8(6900m) 8(7800m)
Fr, 26.02. 2:10 8(6900m) 8(7800m)
Fr, 26.02. 2:00 8(6600m)
Fr, 26.02. 1:50 8(6600m)
Fr, 26.02. 1:40 8(6600m)
Fr, 26.02. 1:30 8(6600m) 8(8100m)
Fr, 26.02. 1:00 3(4500m) 8(6000m) 8(6900m)
Ortszeit Luftdruck NN (hPa) Tendenz (hPa in 3 Std.)
Fr, 26.02. 1:00 1028 + 0,3
Do, 25.02. 19:00 1026 + 1,7
Do, 25.02. 13:00 1023 + 0,1
Do, 25.02. 7:00 1022 - 0,9
Do, 25.02. 1:00 1025 - 0,6
Mi, 24.02. 19:00 1026 - 0,2
Mi, 24.02. 13:00 1026 - 0,4
Mi, 24.02. 7:00 1027 - 0,4
Ortszeit Luftdruck NN (hPa) Tendenz (hPa in 3 Std.)
Fr, 26.02. 2:30 1028 + 0,4
Fr, 26.02. 2:20 1028 keine Meldung
Fr, 26.02. 2:10 1028 keine Meldung
Fr, 26.02. 2:00 1028 + 0,2
Fr, 26.02. 1:50 1028 keine Meldung
Fr, 26.02. 1:40 1028 keine Meldung
Fr, 26.02. 1:30 1028 + 0,2
Fr, 26.02. 1:00 1028 + 0,3
Ortszeit Schneehöhe (cm)
Fr, 26.02. 1:00 0
Do, 25.02. 19:00 0
Do, 25.02. 13:00 0
Do, 25.02. 7:00 0
Do, 25.02. 1:00 0
Mi, 24.02. 19:00 0
Mi, 24.02. 13:00 0
Mi, 24.02. 7:00 0
Ortszeit Schneehöhe (cm)
Fr, 26.02. 2:30 0
Fr, 26.02. 2:20 0
Fr, 26.02. 2:10 0
Fr, 26.02. 2:00 0
Fr, 26.02. 1:50 0
Fr, 26.02. 1:40 0
Fr, 26.02. 1:30 0
Fr, 26.02. 1:00 0
Link zu dieser Seite / Seite empfehlen

Das Wetter in ...